createdAt,value
2023-01-20T00:01:16.506Z,49.56
2023-01-20T00:03:45.842Z,49.22
2023-01-20T00:06:12.497Z,49.06
2023-01-20T00:08:38.790Z,49.43
2023-01-20T00:11:08.924Z,49.27
2023-01-20T00:13:35.728Z,49.79
2023-01-20T00:16:03.072Z,49.24
2023-01-20T00:18:30.196Z,49.76
2023-01-20T00:20:56.550Z,49.94
2023-01-20T00:23:23.851Z,49.07
2023-01-20T00:25:50.300Z,49.35
2023-01-20T00:28:17.052Z,49.75
2023-01-20T00:30:44.527Z,49.58
2023-01-20T00:33:11.884Z,49.15
2023-01-20T00:35:38.856Z,49.27
2023-01-20T00:38:05.202Z,49.38
2023-01-20T00:40:31.630Z,49.71
2023-01-20T00:42:57.933Z,49.62
2023-01-20T00:45:24.173Z,49.37
2023-01-20T00:47:50.425Z,49.44
2023-01-20T00:50:17.991Z,49.42
2023-01-20T00:52:44.273Z,49.80
2023-01-20T00:55:10.648Z,49.65
2023-01-20T00:57:37.063Z,49.37
2023-01-20T01:00:04.026Z,49.55
2023-01-20T01:02:30.506Z,49.03
2023-01-20T01:04:56.848Z,49.08
2023-01-20T01:07:23.228Z,49.15
2023-01-20T01:09:50.459Z,48.96
2023-01-20T01:12:16.725Z,48.96
2023-01-20T01:14:43.127Z,48.81
2023-01-20T01:17:09.404Z,49.67
2023-01-20T01:19:35.664Z,49.17
2023-01-20T01:22:02.080Z,49.13
2023-01-20T01:24:28.359Z,49.67
2023-01-20T01:26:54.656Z,49.75
2023-01-20T01:29:21.199Z,49.02
2023-01-20T01:31:47.536Z,49.52
2023-01-20T01:34:14.188Z,49.65
2023-01-20T01:36:40.427Z,49.12
2023-01-20T01:39:06.897Z,49.72
2023-01-20T01:41:33.139Z,49.17
2023-01-20T01:44:09.766Z,49.31
2023-01-20T01:46:36.417Z,49.59
2023-01-20T01:49:11.840Z,49.39
2023-01-20T01:51:41.532Z,49.19
2023-01-20T01:54:15.224Z,49.89
2023-01-20T01:56:43.332Z,50.00
2023-01-20T01:59:11.745Z,49.20
2023-01-20T02:01:39.546Z,49.42
2023-01-20T02:04:09.249Z,49.45
2023-01-20T02:06:38.333Z,49.43
2023-01-20T02:09:07.100Z,48.97
2023-01-20T02:11:38.867Z,49.64
2023-01-20T02:14:05.611Z,49.49
2023-01-20T02:16:35.808Z,49.08
2023-01-20T02:19:08.264Z,49.24
2023-01-20T02:21:35.572Z,49.69
2023-01-20T02:24:14.194Z,49.41
2023-01-20T02:26:53.658Z,48.89
2023-01-20T02:29:43.017Z,49.02
2023-01-20T02:32:27.471Z,48.88
2023-01-20T02:34:58.726Z,49.80
2023-01-20T02:37:27.543Z,49.16
2023-01-20T02:39:58.582Z,48.92
2023-01-20T02:42:40.818Z,49.33
2023-01-20T02:45:10.201Z,49.33
2023-01-20T02:47:43.161Z,48.90
2023-01-20T02:50:22.780Z,49.09
2023-01-20T02:52:51.411Z,49.36
2023-01-20T02:55:23.001Z,48.90
2023-01-20T02:57:54.519Z,49.04
2023-01-20T03:00:23.073Z,49.73
2023-01-20T03:02:51.195Z,48.96
2023-01-20T03:05:20.422Z,49.62
2023-01-20T03:07:48.362Z,49.71
2023-01-20T03:10:19.001Z,49.78
2023-01-20T03:12:57.133Z,49.79
2023-01-20T03:15:35.820Z,49.24
2023-01-20T03:18:02.094Z,49.82
2023-01-20T03:20:28.359Z,49.45
2023-01-20T03:22:55.974Z,49.42
2023-01-20T03:25:23.039Z,49.37
2023-01-20T03:27:49.296Z,49.93
2023-01-20T03:30:16.347Z,49.43
2023-01-20T03:32:47.362Z,49.11
2023-01-20T03:35:17.545Z,49.03
2023-01-20T03:37:44.511Z,49.02
2023-01-20T03:40:11.964Z,49.18
2023-01-20T03:42:57.284Z,49.83
2023-01-20T03:45:35.627Z,49.78
2023-01-20T03:48:21.824Z,49.46
2023-01-20T03:51:00.256Z,49.49
2023-01-20T03:53:47.555Z,49.75
2023-01-20T03:56:52.579Z,48.99
2023-01-20T03:59:20.304Z,49.27
2023-01-20T04:01:47.250Z,49.04
2023-01-20T04:04:16.389Z,49.96
2023-01-20T04:06:43.759Z,49.44
2023-01-20T04:09:13.948Z,49.68
2023-01-20T04:11:40.456Z,49.79
2023-01-20T04:14:08.771Z,49.53
2023-01-20T04:16:36.019Z,49.41
2023-01-20T04:19:02.287Z,49.22
2023-01-20T04:21:31.528Z,49.13
2023-01-20T04:24:02.771Z,49.78
2023-01-20T04:26:29.049Z,49.11
2023-01-20T04:28:55.334Z,49.76
2023-01-20T04:31:30.510Z,49.84
2023-01-20T04:33:57.965Z,49.71
2023-01-20T04:36:24.316Z,49.33
2023-01-20T04:38:50.576Z,49.14
2023-01-20T04:41:17.267Z,49.01
2023-01-20T04:43:47.264Z,49.04
2023-01-20T04:46:14.378Z,49.46
2023-01-20T04:48:40.687Z,50.00
2023-01-20T04:51:07.753Z,49.49
2023-01-20T04:53:34.580Z,49.84
2023-01-20T04:56:00.820Z,49.20
2023-01-20T04:58:27.130Z,49.66
2023-01-20T05:00:53.501Z,49.69
2023-01-20T05:03:19.889Z,49.09
2023-01-20T05:05:54.070Z,49.17
2023-01-20T05:08:21.645Z,49.98
2023-01-20T05:10:48.178Z,49.77
2023-01-20T05:13:14.524Z,49.00
2023-01-20T05:15:40.975Z,49.34
2023-01-20T05:18:07.218Z,49.33
2023-01-20T05:20:33.547Z,48.95
2023-01-20T05:23:01.381Z,49.19
2023-01-20T05:25:28.174Z,49.52
2023-01-20T05:27:54.622Z,49.29
2023-01-20T05:30:21.226Z,49.71
2023-01-20T05:32:50.992Z,49.69
2023-01-20T05:35:17.989Z,49.21
2023-01-20T05:37:44.682Z,49.03
2023-01-20T05:40:12.541Z,49.75
2023-01-20T05:42:38.812Z,48.95
2023-01-20T05:45:05.503Z,48.84
2023-01-20T05:47:32.210Z,49.78
2023-01-20T05:49:58.449Z,48.96
2023-01-20T05:52:24.904Z,49.53
2023-01-20T05:54:51.227Z,48.93
2023-01-20T05:57:18.319Z,49.64
2023-01-20T05:59:47.361Z,49.70
2023-01-20T06:02:15.880Z,49.29
2023-01-20T06:04:42.503Z,49.72
2023-01-20T06:07:08.781Z,49.16
2023-01-20T06:09:36.287Z,49.38
2023-01-20T06:12:02.766Z,48.72
2023-01-20T06:14:29.026Z,48.69
2023-01-20T06:16:55.479Z,49.36
2023-01-20T06:19:21.814Z,48.90
2023-01-20T06:21:48.291Z,49.60
2023-01-20T06:24:14.582Z,49.49
2023-01-20T06:26:40.842Z,49.55
2023-01-20T06:29:07.074Z,49.48
2023-01-20T06:31:33.423Z,49.64
2023-01-20T06:33:59.863Z,48.73
2023-01-20T06:36:26.812Z,48.79
2023-01-20T06:38:53.299Z,49.25
2023-01-20T06:41:20.629Z,49.43
2023-01-20T06:43:46.929Z,49.75
2023-01-20T06:46:14.519Z,49.46
2023-01-20T06:48:41.626Z,49.58
2023-01-20T06:51:18.561Z,48.94
2023-01-20T06:53:44.837Z,49.40
2023-01-20T06:56:14.851Z,48.93
2023-01-20T06:58:41.930Z,48.91
2023-01-20T07:01:13.864Z,49.49
2023-01-20T07:03:44.651Z,48.86
2023-01-20T07:06:15.533Z,49.47
2023-01-20T07:08:43.151Z,49.56
2023-01-20T07:11:10.130Z,49.21
2023-01-20T07:13:36.344Z,48.92
2023-01-20T07:16:02.684Z,48.86
2023-01-20T07:18:28.966Z,48.86
2023-01-20T07:20:55.838Z,49.78
2023-01-20T07:23:22.781Z,49.10
2023-01-20T07:25:57.045Z,49.09
2023-01-20T07:28:24.624Z,49.29
2023-01-20T07:30:50.953Z,49.32
2023-01-20T07:33:17.404Z,49.26
2023-01-20T07:35:43.756Z,49.47
2023-01-20T07:38:10.108Z,49.09
2023-01-20T07:40:36.327Z,48.87
2023-01-20T07:43:05.863Z,48.91
2023-01-20T07:45:32.144Z,48.94
2023-01-20T07:47:58.474Z,48.87
2023-01-20T07:50:24.777Z,48.89
2023-01-20T07:52:51.014Z,49.00
2023-01-20T07:55:17.502Z,49.00
2023-01-20T07:57:43.853Z,48.70
2023-01-20T08:00:12.996Z,48.88
2023-01-20T08:02:39.593Z,48.84
2023-01-20T08:05:06.184Z,49.34
2023-01-20T08:07:34.442Z,49.59
2023-01-20T08:10:00.789Z,49.68
2023-01-20T08:12:28.961Z,49.59
2023-01-20T08:14:55.893Z,48.78
2023-01-20T08:17:22.934Z,49.03
2023-01-20T08:19:49.799Z,48.79
2023-01-20T08:22:18.201Z,49.13
2023-01-20T08:24:44.425Z,49.56
2023-01-20T08:27:10.698Z,49.25
2023-01-20T08:29:39.525Z,48.96
2023-01-20T08:32:05.778Z,49.36
2023-01-20T08:34:33.669Z,49.27
2023-01-20T08:37:00.082Z,49.54
2023-01-20T08:39:26.489Z,49.23
2023-01-20T08:41:52.953Z,48.87
2023-01-20T08:44:21.398Z,49.65
2023-01-20T08:46:47.906Z,49.78
2023-01-20T08:49:17.890Z,48.93
2023-01-20T08:51:45.064Z,49.28
2023-01-20T08:54:11.727Z,48.94
2023-01-20T08:56:37.999Z,49.01
2023-01-20T08:59:04.489Z,49.81
2023-01-20T09:01:33.472Z,49.80
2023-01-20T09:04:05.912Z,49.68
2023-01-20T09:06:40.620Z,49.38
2023-01-20T09:09:07.086Z,49.72
2023-01-20T09:11:33.618Z,49.74
2023-01-20T09:14:00.014Z,49.84
2023-01-20T09:16:26.327Z,49.79
2023-01-20T09:18:52.605Z,49.95
2023-01-20T09:21:18.942Z,49.39
2023-01-20T09:23:47.911Z,49.19
2023-01-20T09:26:19.889Z,49.78
2023-01-20T09:29:09.563Z,49.78
2023-01-20T09:31:47.050Z,49.77
2023-01-20T09:34:21.295Z,49.77
2023-01-20T09:36:52.420Z,49.48
2023-01-20T09:39:40.128Z,49.22
2023-01-20T09:42:39.270Z,49.33
2023-01-20T09:45:22.590Z,49.65
2023-01-20T09:47:49.068Z,49.85
2023-01-20T09:50:43.279Z,49.96
2023-01-20T09:53:21.724Z,48.96
2023-01-20T09:55:50.420Z,49.29
2023-01-20T09:58:35.158Z,49.57
2023-01-20T10:01:08.826Z,49.85
2023-01-20T10:03:57.956Z,49.90
2023-01-20T10:06:30.198Z,49.81
2023-01-20T10:09:05.435Z,49.77
2023-01-20T10:11:36.291Z,49.55
2023-01-20T10:14:15.114Z,49.31
2023-01-20T10:16:50.299Z,49.77
2023-01-20T10:19:21.862Z,49.40
2023-01-20T10:21:52.579Z,49.62
2023-01-20T10:24:39.850Z,49.72
2023-01-20T10:27:06.419Z,49.50
2023-01-20T10:29:42.668Z,49.27
2023-01-20T10:32:29.170Z,49.38
2023-01-20T10:34:57.167Z,49.10
2023-01-20T10:37:24.407Z,49.16
2023-01-20T10:40:01.616Z,49.38
2023-01-20T10:42:28.646Z,49.38
2023-01-20T10:44:55.264Z,49.18
2023-01-20T10:47:21.486Z,49.11
2023-01-20T10:49:56.343Z,49.54
2023-01-20T10:52:22.594Z,49.40
2023-01-20T10:54:52.000Z,49.17
2023-01-20T10:57:18.237Z,49.24
2023-01-20T10:59:52.592Z,48.99
2023-01-20T11:02:26.280Z,48.99
2023-01-20T11:05:00.666Z,48.91
2023-01-20T11:07:27.921Z,49.35
2023-01-20T11:09:54.238Z,48.96
2023-01-20T11:12:22.920Z,48.92
2023-01-20T11:14:49.388Z,48.87
2023-01-20T11:17:17.623Z,49.07
2023-01-20T11:19:45.122Z,48.96
2023-01-20T11:22:13.170Z,48.51
2023-01-20T11:24:43.707Z,48.67
2023-01-20T11:27:17.192Z,48.64
2023-01-20T11:29:49.809Z,48.50
2023-01-20T11:32:31.772Z,49.04
2023-01-20T11:34:58.547Z,48.65
2023-01-20T11:37:26.055Z,48.68
2023-01-20T11:39:55.351Z,48.45
2023-01-20T11:42:26.027Z,48.61
2023-01-20T11:44:53.434Z,48.66
2023-01-20T11:47:25.531Z,48.74
2023-01-20T11:50:04.155Z,48.74
2023-01-20T11:52:31.422Z,48.62
2023-01-20T11:55:08.094Z,48.42
2023-01-20T11:57:34.715Z,48.74
2023-01-20T12:00:00.939Z,48.64
2023-01-20T12:02:28.075Z,48.50
2023-01-20T12:05:00.419Z,48.61
2023-01-20T12:07:37.056Z,48.49
2023-01-20T12:10:15.601Z,48.50
2023-01-20T12:12:45.630Z,48.38
2023-01-20T12:15:17.257Z,48.50
2023-01-20T12:17:59.233Z,48.75
2023-01-20T12:20:55.725Z,48.49
2023-01-20T12:23:45.589Z,48.27
2023-01-20T12:26:14.572Z,48.82
2023-01-20T12:28:59.636Z,48.79
2023-01-20T12:31:26.571Z,48.60
2023-01-20T12:34:01.017Z,48.50
2023-01-20T12:36:36.337Z,48.60
2023-01-20T12:39:09.233Z,48.68
2023-01-20T12:41:46.384Z,48.69
2023-01-20T12:44:37.023Z,48.60
2023-01-20T12:47:08.780Z,48.45
2023-01-20T12:49:38.039Z,48.00
2023-01-20T12:52:04.557Z,48.19
2023-01-20T12:54:49.013Z,47.42
2023-01-20T12:57:30.606Z,47.61
2023-01-20T13:00:14.881Z,47.43
2023-01-20T13:02:57.554Z,48.21
2023-01-20T13:05:29.005Z,48.03
2023-01-20T13:08:05.306Z,48.25
2023-01-20T13:10:51.538Z,48.51
2023-01-20T13:13:55.769Z,48.07
2023-01-20T13:16:23.376Z,47.96
2023-01-20T13:19:03.407Z,47.68
2023-01-20T13:21:33.372Z,48.01
2023-01-20T13:24:01.371Z,47.74
2023-01-20T13:26:29.032Z,47.70
2023-01-20T13:28:56.434Z,47.65
2023-01-20T13:31:30.694Z,47.86
2023-01-20T13:34:17.051Z,48.04
2023-01-20T13:37:03.393Z,47.97
2023-01-20T13:39:29.726Z,47.88
2023-01-20T13:41:56.125Z,47.92
2023-01-20T13:44:31.867Z,47.63
2023-01-20T13:46:58.101Z,47.45
2023-01-20T13:49:27.485Z,47.77
2023-01-20T13:51:53.770Z,47.51
2023-01-20T13:54:25.144Z,47.26
2023-01-20T13:56:51.953Z,47.53
2023-01-20T13:59:18.223Z,47.40
2023-01-20T14:01:44.784Z,47.13
2023-01-20T14:04:16.052Z,47.41
2023-01-20T14:06:46.249Z,47.16
2023-01-20T14:09:19.547Z,46.68
2023-01-20T14:11:53.189Z,46.85
2023-01-20T14:14:21.300Z,46.87
2023-01-20T14:16:47.629Z,47.23
2023-01-20T14:19:32.893Z,47.44
2023-01-20T14:22:02.733Z,46.89
2023-01-20T14:24:29.762Z,46.81
2023-01-20T14:27:08.010Z,46.88
2023-01-20T14:29:34.321Z,46.65
2023-01-20T14:32:00.767Z,47.13
2023-01-20T14:34:34.466Z,46.60
2023-01-20T14:37:17.820Z,46.81
2023-01-20T14:39:47.848Z,46.53
2023-01-20T14:42:17.915Z,46.88
2023-01-20T14:44:46.638Z,46.71
2023-01-20T14:47:13.527Z,46.07
2023-01-20T14:49:41.500Z,46.27
2023-01-20T14:52:10.965Z,45.90
2023-01-20T14:54:37.396Z,46.41
2023-01-20T14:57:26.348Z,46.56
2023-01-20T15:00:15.424Z,46.52
2023-01-20T15:02:44.810Z,46.76
2023-01-20T15:05:21.840Z,46.74
2023-01-20T15:07:48.330Z,46.60
2023-01-20T15:10:16.581Z,46.55
2023-01-20T15:12:46.534Z,46.68
2023-01-20T15:15:28.662Z,46.50
2023-01-20T15:18:13.697Z,46.58
2023-01-20T15:20:47.586Z,46.54
2023-01-20T15:23:21.880Z,46.71
2023-01-20T15:25:49.223Z,46.24
2023-01-20T15:28:27.923Z,46.73
2023-01-20T15:30:55.544Z,46.75
2023-01-20T15:33:25.798Z,46.93
2023-01-20T15:35:56.915Z,46.59
2023-01-20T15:38:23.569Z,46.78
2023-01-20T15:40:51.670Z,46.70
2023-01-20T15:43:19.174Z,46.45
2023-01-20T15:45:46.158Z,46.40
2023-01-20T15:48:23.014Z,46.90
2023-01-20T15:50:49.738Z,47.12
2023-01-20T15:53:18.640Z,47.26
2023-01-20T15:55:49.205Z,47.00
2023-01-20T15:58:24.214Z,47.01
2023-01-20T16:00:51.853Z,46.86
2023-01-20T16:03:18.297Z,47.28
2023-01-20T16:05:47.005Z,46.93
2023-01-20T16:08:26.979Z,46.93
2023-01-20T16:10:55.311Z,46.82
2023-01-20T16:13:21.921Z,46.81
2023-01-20T16:15:48.383Z,47.07
2023-01-20T16:18:16.183Z,46.77
2023-01-20T16:20:44.072Z,46.90
2023-01-20T16:23:10.748Z,46.47
2023-01-20T16:25:37.430Z,46.52
2023-01-20T16:28:22.305Z,47.08
2023-01-20T16:30:49.088Z,46.47
2023-01-20T16:33:20.859Z,46.94
2023-01-20T16:35:47.716Z,46.48
2023-01-20T16:38:15.476Z,46.40
2023-01-20T16:40:52.061Z,46.94
2023-01-20T16:43:22.621Z,46.93
2023-01-20T16:45:54.230Z,46.61
2023-01-20T16:48:23.971Z,46.29
2023-01-20T16:50:52.265Z,46.56
2023-01-20T16:53:19.259Z,46.53
2023-01-20T16:55:46.746Z,46.98
2023-01-20T16:58:13.774Z,47.00
2023-01-20T17:00:40.549Z,46.82
2023-01-20T17:03:07.841Z,46.74
2023-01-20T17:05:34.445Z,47.42
2023-01-20T17:08:02.561Z,47.17
2023-01-20T17:10:29.979Z,47.44
2023-01-20T17:12:56.747Z,47.62
2023-01-20T17:15:23.540Z,47.80
2023-01-20T17:17:50.810Z,47.79
2023-01-20T17:20:17.812Z,47.59
2023-01-20T17:22:44.588Z,47.51
2023-01-20T17:25:11.608Z,47.71
2023-01-20T17:27:39.420Z,47.53
2023-01-20T17:30:07.964Z,47.76
2023-01-20T17:32:37.288Z,47.83
2023-01-20T17:35:03.803Z,47.89
2023-01-20T17:37:30.204Z,47.80
2023-01-20T17:39:56.470Z,47.10
2023-01-20T17:42:22.737Z,47.09
2023-01-20T17:44:49.008Z,47.33
2023-01-20T17:47:15.406Z,47.78
2023-01-20T17:49:41.613Z,46.92
2023-01-20T17:52:08.084Z,47.31
2023-01-20T17:54:34.376Z,47.30
2023-01-20T17:57:00.673Z,47.57
2023-01-20T17:59:27.166Z,47.62
2023-01-20T18:01:54.346Z,47.85
2023-01-20T18:04:20.734Z,47.10
2023-01-20T18:06:47.035Z,47.25
2023-01-20T18:09:14.174Z,46.99
2023-01-20T18:11:40.738Z,47.41
2023-01-20T18:14:07.134Z,46.76
2023-01-20T18:16:34.738Z,47.01
2023-01-20T18:19:01.542Z,47.49
2023-01-20T18:21:29.848Z,47.69
2023-01-20T18:23:56.940Z,47.53
2023-01-20T18:26:24.253Z,47.44
2023-01-20T18:28:53.823Z,47.17
2023-01-20T18:31:21.989Z,47.64
2023-01-20T18:33:53.791Z,47.53
2023-01-20T18:36:24.699Z,47.41
2023-01-20T18:38:51.869Z,47.63
2023-01-20T18:41:20.197Z,47.63
2023-01-20T18:43:46.937Z,47.62
2023-01-20T18:46:13.953Z,47.54
2023-01-20T18:48:41.098Z,47.40
2023-01-20T18:51:08.324Z,47.84
2023-01-20T18:53:39.049Z,47.59
2023-01-20T18:56:06.690Z,47.30
2023-01-20T18:58:33.782Z,47.70
2023-01-20T19:01:10.906Z,47.61
2023-01-20T19:03:37.768Z,47.53
2023-01-20T19:06:04.605Z,47.71
2023-01-20T19:08:31.137Z,47.70
2023-01-20T19:11:01.528Z,47.76
2023-01-20T19:13:27.987Z,47.72
2023-01-20T19:15:54.434Z,47.76
2023-01-20T19:18:20.766Z,47.53
2023-01-20T19:20:47.062Z,47.56
2023-01-20T19:23:13.783Z,47.73
2023-01-20T19:25:40.935Z,47.75
2023-01-20T19:28:09.099Z,47.63
2023-01-20T19:30:36.325Z,47.78
2023-01-20T19:33:03.654Z,47.91
2023-01-20T19:35:33.450Z,47.83
2023-01-20T19:37:59.763Z,47.83
2023-01-20T19:40:28.923Z,47.86
2023-01-20T19:42:55.222Z,47.85
2023-01-20T19:45:23.570Z,47.94
2023-01-20T19:47:51.775Z,47.97
2023-01-20T19:50:19.147Z,48.06
2023-01-20T19:52:45.677Z,48.05
2023-01-20T19:55:13.967Z,48.18
2023-01-20T19:57:40.281Z,48.29
2023-01-20T20:00:06.944Z,47.91
2023-01-20T20:02:33.831Z,48.13
2023-01-20T20:05:00.216Z,48.12
2023-01-20T20:07:26.533Z,48.07
2023-01-20T20:09:52.780Z,48.07
2023-01-20T20:12:19.150Z,48.21
2023-01-20T20:14:45.872Z,47.97
2023-01-20T20:17:12.163Z,48.07
2023-01-20T20:19:38.656Z,47.97
2023-01-20T20:22:04.868Z,48.19
2023-01-20T20:24:32.479Z,48.18
2023-01-20T20:26:58.728Z,48.23
2023-01-20T20:29:29.144Z,48.17
2023-01-20T20:31:55.478Z,48.35
2023-01-20T20:34:21.865Z,48.26
2023-01-20T20:36:48.280Z,48.31
2023-01-20T20:39:15.698Z,48.36
2023-01-20T20:41:42.723Z,48.01
2023-01-20T20:44:12.609Z,48.26
2023-01-20T20:46:39.433Z,48.20
2023-01-20T20:49:08.582Z,48.05
2023-01-20T20:51:34.913Z,48.42
2023-01-20T20:54:03.161Z,48.16
2023-01-20T20:56:33.235Z,48.21
2023-01-20T20:59:02.826Z,48.53
2023-01-20T21:01:32.131Z,48.50
2023-01-20T21:04:00.780Z,48.36
2023-01-20T21:06:28.697Z,48.28
2023-01-20T21:08:58.891Z,48.41
2023-01-20T21:11:27.609Z,48.33
2023-01-20T21:13:54.372Z,48.43
2023-01-20T21:16:23.543Z,48.51
2023-01-20T21:18:58.372Z,48.40
2023-01-20T21:21:26.635Z,48.42
2023-01-20T21:23:55.482Z,48.07
2023-01-20T21:26:22.890Z,48.17
2023-01-20T21:28:49.525Z,48.40
2023-01-20T21:31:19.241Z,48.34
2023-01-20T21:33:46.504Z,48.29
2023-01-20T21:36:14.165Z,48.39
2023-01-20T21:38:45.703Z,48.09
2023-01-20T21:41:13.108Z,48.09
2023-01-20T21:43:59.154Z,48.43
2023-01-20T21:46:29.073Z,48.35
2023-01-20T21:49:14.386Z,48.24
2023-01-20T21:51:59.122Z,48.28
2023-01-20T21:54:29.110Z,48.72
2023-01-20T21:56:55.558Z,48.41
2023-01-20T21:59:22.171Z,48.05
2023-01-20T22:01:48.704Z,48.44
2023-01-20T22:04:15.163Z,48.44
2023-01-20T22:06:41.993Z,48.31
2023-01-20T22:09:11.595Z,48.62
2023-01-20T22:11:37.886Z,48.68
2023-01-20T22:14:06.504Z,48.72
2023-01-20T22:16:34.770Z,48.25
2023-01-20T22:19:01.226Z,48.55
2023-01-20T22:21:27.681Z,48.25
2023-01-20T22:23:53.956Z,48.32
2023-01-20T22:26:20.758Z,48.51
2023-01-20T22:28:47.116Z,48.86
2023-01-20T22:31:17.837Z,48.89
2023-01-20T22:33:45.696Z,48.23
2023-01-20T22:36:12.134Z,48.79
2023-01-20T22:38:38.419Z,48.98
2023-01-20T22:41:05.792Z,48.98
2023-01-20T22:43:33.692Z,48.53
2023-01-20T22:46:01.344Z,48.73
2023-01-20T22:48:27.934Z,48.90
2023-01-20T22:50:54.725Z,48.85
2023-01-20T22:53:22.647Z,48.84
2023-01-20T22:56:00.187Z,48.87
2023-01-20T22:58:27.005Z,48.98
2023-01-20T23:00:53.521Z,49.00
2023-01-20T23:03:21.903Z,48.74
2023-01-20T23:05:58.674Z,48.73
2023-01-20T23:08:25.610Z,48.98
2023-01-20T23:11:00.184Z,49.00
2023-01-20T23:13:27.225Z,48.86
2023-01-20T23:15:54.564Z,48.58
2023-01-20T23:18:21.161Z,48.61
2023-01-20T23:20:48.617Z,48.82
2023-01-20T23:23:15.413Z,48.84
2023-01-20T23:25:41.984Z,48.56
2023-01-20T23:28:09.558Z,48.60
2023-01-20T23:30:36.039Z,48.63
2023-01-20T23:33:02.887Z,48.95
2023-01-20T23:35:29.213Z,48.72
2023-01-20T23:37:55.421Z,48.93
2023-01-20T23:40:21.734Z,48.53
2023-01-20T23:42:47.990Z,48.48
2023-01-20T23:45:14.503Z,48.95
2023-01-20T23:47:43.516Z,48.78
2023-01-20T23:50:10.114Z,48.63
2023-01-20T23:52:36.450Z,48.64
2023-01-20T23:55:02.944Z,48.50
2023-01-20T23:57:29.540Z,48.83
2023-01-20T23:59:55.976Z,48.47
